sensor_id;sensor_type;location;lat;lon;timestamp;P1;durP1;ratioP1;P2;durP2;ratioP2
66139;SDS011;52945;51.908;8.364;2023-05-10T00:00:01;7.07;;;4.10;;
66139;SDS011;52945;51.908;8.364;2023-05-10T00:06:04;6.75;;;3.50;;
66139;SDS011;52945;51.908;8.364;2023-05-10T00:09:05;7.85;;;3.95;;
66139;SDS011;52945;51.908;8.364;2023-05-10T00:12:06;7.20;;;3.45;;
66139;SDS011;52945;51.908;8.364;2023-05-10T00:15:07;6.53;;;3.45;;
66139;SDS011;52945;51.908;8.364;2023-05-10T00:18:08;5.65;;;3.05;;
66139;SDS011;52945;51.908;8.364;2023-05-10T00:21:08;5.55;;;3.15;;
66139;SDS011;52945;51.908;8.364;2023-05-10T00:24:09;7.07;;;3.72;;
66139;SDS011;52945;51.908;8.364;2023-05-10T00:27:10;7.57;;;3.75;;
66139;SDS011;52945;51.908;8.364;2023-05-10T00:30:10;6.07;;;3.58;;
66139;SDS011;52945;51.908;8.364;2023-05-10T00:33:11;9.13;;;3.58;;
66139;SDS011;52945;51.908;8.364;2023-05-10T00:39:12;9.50;;;3.83;;
66139;SDS011;52945;51.908;8.364;2023-05-10T00:42:13;7.72;;;4.05;;
66139;SDS011;52945;51.908;8.364;2023-05-10T00:45:14;9.00;;;3.97;;
66139;SDS011;52945;51.908;8.364;2023-05-10T00:48:14;7.47;;;4.18;;
66139;SDS011;52945;51.908;8.364;2023-05-10T00:51:15;8.95;;;4.40;;
66139;SDS011;52945;51.908;8.364;2023-05-10T00:54:15;7.30;;;4.18;;
66139;SDS011;52945;51.908;8.364;2023-05-10T00:57:16;8.50;;;4.07;;
66139;SDS011;52945;51.908;8.364;2023-05-10T01:00:17;10.80;;;4.28;;
66139;SDS011;52945;51.908;8.364;2023-05-10T01:03:18;7.70;;;4.75;;
66139;SDS011;52945;51.908;8.364;2023-05-10T01:06:19;8.82;;;4.30;;
66139;SDS011;52945;51.908;8.364;2023-05-10T01:09:20;8.68;;;3.85;;
66139;SDS011;52945;51.908;8.364;2023-05-10T01:12:21;9.25;;;4.10;;
66139;SDS011;52945;51.908;8.364;2023-05-10T01:15:22;7.82;;;4.10;;
66139;SDS011;52945;51.908;8.364;2023-05-10T01:18:23;9.55;;;4.70;;
66139;SDS011;52945;51.908;8.364;2023-05-10T01:35:07;8.00;;;3.92;;
66139;SDS011;52945;51.908;8.364;2023-05-10T01:41:51;7.40;;;3.58;;
66139;SDS011;52945;51.908;8.364;2023-05-10T01:45:00;8.05;;;3.97;;
66139;SDS011;52945;51.908;8.364;2023-05-10T01:48:08;7.28;;;3.53;;
66139;SDS011;52945;51.908;8.364;2023-05-10T01:51:10;11.82;;;3.53;;
66139;SDS011;52945;51.908;8.364;2023-05-10T01:54:13;5.72;;;2.90;;
66139;SDS011;52945;51.908;8.364;2023-05-10T01:57:16;5.57;;;2.83;;
66139;SDS011;52945;51.908;8.364;2023-05-10T02:00:20;8.00;;;3.17;;
66139;SDS011;52945;51.908;8.364;2023-05-10T02:03:22;5.57;;;2.75;;
66139;SDS011;52945;51.908;8.364;2023-05-10T02:06:25;4.93;;;2.67;;
66139;SDS011;52945;51.908;8.364;2023-05-10T02:09:27;5.75;;;2.97;;
66139;SDS011;52945;51.908;8.364;2023-05-10T02:12:29;6.05;;;2.85;;
66139;SDS011;52945;51.908;8.364;2023-05-10T02:15:32;6.28;;;2.65;;
66139;SDS011;52945;51.908;8.364;2023-05-10T02:18:33;6.72;;;3.13;;
66139;SDS011;52945;51.908;8.364;2023-05-10T02:21:35;6.10;;;2.70;;
66139;SDS011;52945;51.908;8.364;2023-05-10T02:24:39;5.72;;;3.20;;
66139;SDS011;52945;51.908;8.364;2023-05-10T02:30:41;7.38;;;3.33;;
66139;SDS011;52945;51.908;8.364;2023-05-10T02:33:42;6.70;;;3.25;;
66139;SDS011;52945;51.908;8.364;2023-05-10T02:36:44;8.98;;;3.33;;
66139;SDS011;52945;51.908;8.364;2023-05-10T02:39:46;8.07;;;3.65;;
66139;SDS011;52945;51.908;8.364;2023-05-10T02:42:48;8.63;;;3.50;;
66139;SDS011;52945;51.908;8.364;2023-05-10T02:45:52;6.85;;;3.33;;
66139;SDS011;52945;51.908;8.364;2023-05-10T02:48:53;8.98;;;3.92;;
66139;SDS011;52945;51.908;8.364;2023-05-10T02:51:55;7.72;;;3.83;;
66139;SDS011;52945;51.908;8.364;2023-05-10T02:55:00;9.88;;;3.75;;
66139;SDS011;52945;51.908;8.364;2023-05-10T02:58:04;9.93;;;3.55;;
66139;SDS011;52945;51.908;8.364;2023-05-10T03:01:05;9.98;;;3.97;;
66139;SDS011;52945;51.908;8.364;2023-05-10T03:04:07;8.25;;;3.67;;
66139;SDS011;52945;51.908;8.364;2023-05-10T03:07:08;10.38;;;4.28;;
66139;SDS011;52945;51.908;8.364;2023-05-10T03:10:09;11.48;;;4.82;;
66139;SDS011;52945;51.908;8.364;2023-05-10T03:13:18;12.00;;;4.90;;
66139;SDS011;52945;51.908;8.364;2023-05-10T03:16:35;6.65;;;3.22;;
66139;SDS011;52945;51.908;8.364;2023-05-10T03:19:56;9.50;;;4.00;;
66139;SDS011;52945;51.908;8.364;2023-05-10T03:23:04;9.70;;;3.90;;
66139;SDS011;52945;51.908;8.364;2023-05-10T03:26:13;9.48;;;4.00;;
66139;SDS011;52945;51.908;8.364;2023-05-10T03:29:25;8.15;;;3.80;;
66139;SDS011;52945;51.908;8.364;2023-05-10T03:35:28;7.55;;;3.25;;
66139;SDS011;52945;51.908;8.364;2023-05-10T03:38:29;7.22;;;3.13;;
66139;SDS011;52945;51.908;8.364;2023-05-10T03:41:30;6.88;;;3.00;;
66139;SDS011;52945;51.908;8.364;2023-05-10T03:44:31;4.80;;;2.38;;
66139;SDS011;52945;51.908;8.364;2023-05-10T03:47:33;2.60;;;1.67;;
66139;SDS011;52945;51.908;8.364;2023-05-10T03:50:33;4.47;;;1.70;;
66139;SDS011;52945;51.908;8.364;2023-05-10T03:53:34;1.45;;;1.13;;
66139;SDS011;52945;51.908;8.364;2023-05-10T03:59:36;1.65;;;1.23;;
66139;SDS011;52945;51.908;8.364;2023-05-10T04:02:36;1.95;;;1.40;;
66139;SDS011;52945;51.908;8.364;2023-05-10T04:05:37;1.70;;;1.60;;
66139;SDS011;52945;51.908;8.364;2023-05-10T04:08:38;1.98;;;1.45;;
66139;SDS011;52945;51.908;8.364;2023-05-10T04:11:38;1.92;;;1.60;;
66139;SDS011;52945;51.908;8.364;2023-05-10T04:14:39;1.90;;;1.73;;
66139;SDS011;52945;51.908;8.364;2023-05-10T04:17:39;2.10;;;1.90;;
66139;SDS011;52945;51.908;8.364;2023-05-10T04:20:40;2.38;;;1.77;;
66139;SDS011;52945;51.908;8.364;2023-05-10T04:23:41;2.38;;;2.00;;
66139;SDS011;52945;51.908;8.364;2023-05-10T04:26:41;3.45;;;2.33;;
66139;SDS011;52945;51.908;8.364;2023-05-10T04:29:42;2.40;;;1.80;;
66139;SDS011;52945;51.908;8.364;2023-05-10T04:32:42;1.80;;;1.35;;
66139;SDS011;52945;51.908;8.364;2023-05-10T04:35:43;3.47;;;1.65;;
66139;SDS011;52945;51.908;8.364;2023-05-10T04:38:45;1.60;;;1.35;;
66139;SDS011;52945;51.908;8.364;2023-05-10T04:41:45;2.63;;;1.50;;
66139;SDS011;52945;51.908;8.364;2023-05-10T04:44:46;2.15;;;1.52;;
66139;SDS011;52945;51.908;8.364;2023-05-10T04:47:46;2.05;;;1.50;;
66139;SDS011;52945;51.908;8.364;2023-05-10T04:50:47;3.10;;;1.75;;
66139;SDS011;52945;51.908;8.364;2023-05-10T04:53:48;3.08;;;1.80;;
66139;SDS011;52945;51.908;8.364;2023-05-10T04:56:48;1.98;;;1.50;;
66139;SDS011;52945;51.908;8.364;2023-05-10T04:59:49;2.10;;;1.58;;
66139;SDS011;52945;51.908;8.364;2023-05-10T05:02:49;2.58;;;1.45;;
66139;SDS011;52945;51.908;8.364;2023-05-10T05:05:50;2.38;;;1.50;;
66139;SDS011;52945;51.908;8.364;2023-05-10T05:08:51;2.95;;;1.50;;
66139;SDS011;52945;51.908;8.364;2023-05-10T05:11:51;2.08;;;1.30;;
66139;SDS011;52945;51.908;8.364;2023-05-10T05:14:52;1.75;;;1.30;;
66139;SDS011;52945;51.908;8.364;2023-05-10T05:17:52;1.98;;;1.13;;
66139;SDS011;52945;51.908;8.364;2023-05-10T05:20:53;2.08;;;1.50;;
66139;SDS011;52945;51.908;8.364;2023-05-10T05:23:54;2.28;;;1.48;;
66139;SDS011;52945;51.908;8.364;2023-05-10T05:26:54;2.22;;;1.30;;
66139;SDS011;52945;51.908;8.364;2023-05-10T05:29:55;2.13;;;1.25;;
66139;SDS011;52945;51.908;8.364;2023-05-10T05:32:56;1.92;;;1.30;;
66139;SDS011;52945;51.908;8.364;2023-05-10T05:35:57;2.20;;;1.20;;
66139;SDS011;52945;51.908;8.364;2023-05-10T05:39:00;2.50;;;1.70;;
66139;SDS011;52945;51.908;8.364;2023-05-10T05:42:00;2.45;;;1.40;;
66139;SDS011;52945;51.908;8.364;2023-05-10T05:45:01;3.08;;;1.60;;
66139;SDS011;52945;51.908;8.364;2023-05-10T05:48:01;1.92;;;1.60;;
66139;SDS011;52945;51.908;8.364;2023-05-10T05:51:02;2.72;;;1.60;;
66139;SDS011;52945;51.908;8.364;2023-05-10T05:54:03;2.67;;;1.67;;
66139;SDS011;52945;51.908;8.364;2023-05-10T05:57:04;2.42;;;1.60;;
66139;SDS011;52945;51.908;8.364;2023-05-10T06:00:05;1.77;;;1.35;;
66139;SDS011;52945;51.908;8.364;2023-05-10T06:03:06;2.92;;;1.67;;
66139;SDS011;52945;51.908;8.364;2023-05-10T06:06:07;3.17;;;1.88;;
66139;SDS011;52945;51.908;8.364;2023-05-10T06:09:08;2.58;;;2.05;;
66139;SDS011;52945;51.908;8.364;2023-05-10T06:15:09;2.40;;;1.60;;
66139;SDS011;52945;51.908;8.364;2023-05-10T06:18:10;1.95;;;1.42;;
66139;SDS011;52945;51.908;8.364;2023-05-10T06:21:11;4.32;;;2.22;;
66139;SDS011;52945;51.908;8.364;2023-05-10T06:24:11;4.20;;;1.73;;
66139;SDS011;52945;51.908;8.364;2023-05-10T06:27:12;2.03;;;1.60;;
66139;SDS011;52945;51.908;8.364;2023-05-10T06:30:12;3.35;;;1.83;;
66139;SDS011;52945;51.908;8.364;2023-05-10T06:33:14;2.60;;;1.77;;
66139;SDS011;52945;51.908;8.364;2023-05-10T06:39:16;3.83;;;2.00;;
66139;SDS011;52945;51.908;8.364;2023-05-10T06:42:17;2.83;;;1.88;;
66139;SDS011;52945;51.908;8.364;2023-05-10T06:45:17;5.35;;;2.30;;
66139;SDS011;52945;51.908;8.364;2023-05-10T06:48:18;4.28;;;2.35;;
66139;SDS011;52945;51.908;8.364;2023-05-10T06:51:18;3.45;;;1.92;;
66139;SDS011;52945;51.908;8.364;2023-05-10T06:54:21;4.72;;;2.20;;
66139;SDS011;52945;51.908;8.364;2023-05-10T06:57:21;5.72;;;2.58;;
66139;SDS011;52945;51.908;8.364;2023-05-10T07:00:22;12.43;;;3.42;;
66139;SDS011;52945;51.908;8.364;2023-05-10T07:03:22;11.65;;;3.65;;
66139;SDS011;52945;51.908;8.364;2023-05-10T07:06:23;10.20;;;3.72;;
66139;SDS011;52945;51.908;8.364;2023-05-10T07:09:24;13.48;;;4.32;;
66139;SDS011;52945;51.908;8.364;2023-05-10T07:12:24;14.52;;;4.45;;
66139;SDS011;52945;51.908;8.364;2023-05-10T07:15:25;13.38;;;4.50;;
66139;SDS011;52945;51.908;8.364;2023-05-10T07:18:26;16.30;;;4.28;;
66139;SDS011;52945;51.908;8.364;2023-05-10T07:21:26;10.60;;;3.85;;
66139;SDS011;52945;51.908;8.364;2023-05-10T07:24:28;11.88;;;4.50;;
66139;SDS011;52945;51.908;8.364;2023-05-10T07:30:30;12.13;;;4.43;;
66139;SDS011;52945;51.908;8.364;2023-05-10T07:33:30;10.20;;;4.18;;
66139;SDS011;52945;51.908;8.364;2023-05-10T07:36:31;13.43;;;4.35;;
66139;SDS011;52945;51.908;8.364;2023-05-10T07:39:32;11.80;;;4.30;;
66139;SDS011;52945;51.908;8.364;2023-05-10T07:42:33;10.38;;;4.20;;
66139;SDS011;52945;51.908;8.364;2023-05-10T07:45:33;11.05;;;4.03;;
66139;SDS011;52945;51.908;8.364;2023-05-10T07:48:34;11.13;;;4.70;;
66139;SDS011;52945;51.908;8.364;2023-05-10T07:51:36;13.77;;;5.25;;
66139;SDS011;52945;51.908;8.364;2023-05-10T07:54:36;12.60;;;4.55;;
66139;SDS011;52945;51.908;8.364;2023-05-10T07:57:38;16.85;;;5.80;;
66139;SDS011;52945;51.908;8.364;2023-05-10T08:00:39;15.50;;;5.35;;
66139;SDS011;52945;51.908;8.364;2023-05-10T08:03:41;13.88;;;5.38;;
66139;SDS011;52945;51.908;8.364;2023-05-10T08:06:41;16.05;;;5.97;;
66139;SDS011;52945;51.908;8.364;2023-05-10T08:09:42;15.30;;;5.45;;
66139;SDS011;52945;51.908;8.364;2023-05-10T08:12:42;17.35;;;6.57;;
66139;SDS011;52945;51.908;8.364;2023-05-10T08:15:43;16.75;;;6.43;;
66139;SDS011;52945;51.908;8.364;2023-05-10T08:18:44;17.17;;;7.15;;
66139;SDS011;52945;51.908;8.364;2023-05-10T08:21:46;21.50;;;7.47;;
66139;SDS011;52945;51.908;8.364;2023-05-10T08:24:47;23.58;;;8.20;;
66139;SDS011;52945;51.908;8.364;2023-05-10T08:27:48;19.65;;;7.43;;
66139;SDS011;52945;51.908;8.364;2023-05-10T08:30:49;19.48;;;7.32;;
66139;SDS011;52945;51.908;8.364;2023-05-10T08:33:50;14.50;;;6.05;;
66139;SDS011;52945;51.908;8.364;2023-05-10T08:36:52;17.35;;;7.00;;
66139;SDS011;52945;51.908;8.364;2023-05-10T08:39:53;17.23;;;6.50;;
66139;SDS011;52945;51.908;8.364;2023-05-10T08:49:08;15.82;;;6.47;;
66139;SDS011;52945;51.908;8.364;2023-05-10T08:52:11;18.23;;;6.32;;
66139;SDS011;52945;51.908;8.364;2023-05-10T08:55:15;22.20;;;8.23;;
66139;SDS011;52945;51.908;8.364;2023-05-10T08:58:16;21.83;;;8.43;;
66139;SDS011;52945;51.908;8.364;2023-05-10T09:01:17;20.23;;;7.45;;
66139;SDS011;52945;51.908;8.364;2023-05-10T09:04:19;23.75;;;7.95;;
66139;SDS011;52945;51.908;8.364;2023-05-10T09:07:20;23.42;;;8.23;;
66139;SDS011;52945;51.908;8.364;2023-05-10T09:10:21;22.63;;;8.40;;
66139;SDS011;52945;51.908;8.364;2023-05-10T09:13:25;24.85;;;9.23;;
66139;SDS011;52945;51.908;8.364;2023-05-10T09:16:26;27.00;;;9.45;;
66139;SDS011;52945;51.908;8.364;2023-05-10T09:19:27;26.45;;;9.05;;
66139;SDS011;52945;51.908;8.364;2023-05-10T09:22:28;30.90;;;10.02;;
66139;SDS011;52945;51.908;8.364;2023-05-10T09:25:29;24.45;;;9.55;;
66139;SDS011;52945;51.908;8.364;2023-05-10T09:28:33;26.33;;;9.73;;
66139;SDS011;52945;51.908;8.364;2023-05-10T09:31:50;23.63;;;9.93;;
66139;SDS011;52945;51.908;8.364;2023-05-10T09:34:52;29.52;;;10.13;;
66139;SDS011;52945;51.908;8.364;2023-05-10T09:37:53;28.63;;;9.93;;
66139;SDS011;52945;51.908;8.364;2023-05-10T09:40:54;24.23;;;9.25;;
66139;SDS011;52945;51.908;8.364;2023-05-10T09:43:55;21.67;;;9.13;;
66139;SDS011;52945;51.908;8.364;2023-05-10T09:46:56;22.08;;;7.50;;
66139;SDS011;52945;51.908;8.364;2023-05-10T09:49:57;17.55;;;5.97;;
66139;SDS011;52945;51.908;8.364;2023-05-10T09:53:03;15.73;;;6.53;;
66139;SDS011;52945;51.908;8.364;2023-05-10T09:56:03;19.05;;;8.02;;
66139;SDS011;52945;51.908;8.364;2023-05-10T09:59:04;16.20;;;6.32;;
66139;SDS011;52945;51.908;8.364;2023-05-10T10:02:06;14.50;;;5.90;;
66139;SDS011;52945;51.908;8.364;2023-05-10T10:05:07;16.38;;;6.72;;
66139;SDS011;52945;51.908;8.364;2023-05-10T10:11:09;14.30;;;5.90;;
66139;SDS011;52945;51.908;8.364;2023-05-10T10:14:09;13.68;;;6.20;;
66139;SDS011;52945;51.908;8.364;2023-05-10T10:17:12;13.70;;;6.03;;
66139;SDS011;52945;51.908;8.364;2023-05-10T10:20:13;13.25;;;6.30;;
66139;SDS011;52945;51.908;8.364;2023-05-10T10:23:15;12.52;;;5.68;;
66139;SDS011;52945;51.908;8.364;2023-05-10T10:35:35;13.13;;;5.78;;
66139;SDS011;52945;51.908;8.364;2023-05-10T10:38:37;13.70;;;5.80;;
66139;SDS011;52945;51.908;8.364;2023-05-10T10:41:49;12.98;;;6.20;;
66139;SDS011;52945;51.908;8.364;2023-05-10T10:44:53;13.63;;;5.40;;
66139;SDS011;52945;51.908;8.364;2023-05-10T10:48:24;13.07;;;5.57;;
66139;SDS011;52945;51.908;8.364;2023-05-10T10:51:28;12.60;;;5.38;;
66139;SDS011;52945;51.908;8.364;2023-05-10T10:54:28;12.63;;;5.50;;
66139;SDS011;52945;51.908;8.364;2023-05-10T11:00:32;10.35;;;4.30;;
66139;SDS011;52945;51.908;8.364;2023-05-10T11:03:36;10.27;;;4.63;;
66139;SDS011;52945;51.908;8.364;2023-05-10T11:09:41;11.30;;;4.47;;
66139;SDS011;52945;51.908;8.364;2023-05-10T11:19:15;11.80;;;4.88;;
66139;SDS011;52945;51.908;8.364;2023-05-10T11:22:16;12.82;;;5.10;;
66139;SDS011;52945;51.908;8.364;2023-05-10T11:25:18;11.80;;;5.15;;
66139;SDS011;52945;51.908;8.364;2023-05-10T11:28:19;13.23;;;5.53;;
66139;SDS011;52945;51.908;8.364;2023-05-10T11:34:30;12.10;;;4.60;;
66139;SDS011;52945;51.908;8.364;2023-05-10T11:37:33;12.43;;;5.47;;
66139;SDS011;52945;51.908;8.364;2023-05-10T11:43:35;13.50;;;5.25;;
66139;SDS011;52945;51.908;8.364;2023-05-10T11:46:38;13.70;;;5.63;;
66139;SDS011;52945;51.908;8.364;2023-05-10T11:52:43;13.15;;;5.30;;
66139;SDS011;52945;51.908;8.364;2023-05-10T11:58:44;17.52;;;5.28;;
66139;SDS011;52945;51.908;8.364;2023-05-10T12:01:47;13.93;;;5.97;;
66139;SDS011;52945;51.908;8.364;2023-05-10T12:04:48;11.70;;;5.57;;
66139;SDS011;52945;51.908;8.364;2023-05-10T12:07:49;14.88;;;5.50;;
66139;SDS011;52945;51.908;8.364;2023-05-10T12:13:51;11.95;;;5.32;;
66139;SDS011;52945;51.908;8.364;2023-05-10T12:19:52;11.82;;;4.47;;
66139;SDS011;52945;51.908;8.364;2023-05-10T12:25:54;13.80;;;4.97;;
66139;SDS011;52945;51.908;8.364;2023-05-10T12:29:16;11.68;;;5.55;;
66139;SDS011;52945;51.908;8.364;2023-05-10T12:32:17;15.63;;;5.85;;
66139;SDS011;52945;51.908;8.364;2023-05-10T12:38:32;17.27;;;6.65;;
66139;SDS011;52945;51.908;8.364;2023-05-10T12:41:38;13.93;;;5.93;;
66139;SDS011;52945;51.908;8.364;2023-05-10T12:47:39;15.30;;;5.93;;
66139;SDS011;52945;51.908;8.364;2023-05-10T12:53:40;15.60;;;5.50;;
66139;SDS011;52945;51.908;8.364;2023-05-10T12:59:42;14.60;;;6.05;;
66139;SDS011;52945;51.908;8.364;2023-05-10T13:05:43;13.27;;;5.22;;
66139;SDS011;52945;51.908;8.364;2023-05-10T13:11:44;15.00;;;5.43;;
66139;SDS011;52945;51.908;8.364;2023-05-10T13:14:45;13.05;;;5.13;;
66139;SDS011;52945;51.908;8.364;2023-05-10T13:20:46;17.40;;;5.88;;
66139;SDS011;52945;51.908;8.364;2023-05-10T13:26:47;15.55;;;5.78;;
66139;SDS011;52945;51.908;8.364;2023-05-10T13:32:48;15.98;;;5.95;;
66139;SDS011;52945;51.908;8.364;2023-05-10T13:35:50;12.10;;;5.65;;
66139;SDS011;52945;51.908;8.364;2023-05-10T13:38:50;13.50;;;5.53;;
66139;SDS011;52945;51.908;8.364;2023-05-10T13:44:51;11.93;;;5.47;;
66139;SDS011;52945;51.908;8.364;2023-05-10T13:47:52;14.75;;;6.00;;
66139;SDS011;52945;51.908;8.364;2023-05-10T13:53:53;10.93;;;4.93;;
66139;SDS011;52945;51.908;8.364;2023-05-10T13:59:54;12.10;;;5.53;;
66139;SDS011;52945;51.908;8.364;2023-05-10T14:02:55;13.20;;;5.85;;
66139;SDS011;52945;51.908;8.364;2023-05-10T14:05:55;14.25;;;6.20;;
66139;SDS011;52945;51.908;8.364;2023-05-10T14:11:56;13.65;;;6.20;;
66139;SDS011;52945;51.908;8.364;2023-05-10T14:17:58;14.80;;;6.38;;
66139;SDS011;52945;51.908;8.364;2023-05-10T14:20:58;15.95;;;7.25;;
66139;SDS011;52945;51.908;8.364;2023-05-10T14:23:59;16.67;;;6.18;;
66139;SDS011;52945;51.908;8.364;2023-05-10T14:27:00;18.73;;;7.07;;
66139;SDS011;52945;51.908;8.364;2023-05-10T14:30:00;15.30;;;6.63;;
66139;SDS011;52945;51.908;8.364;2023-05-10T14:36:02;13.95;;;6.60;;
66139;SDS011;52945;51.908;8.364;2023-05-10T14:39:03;18.17;;;7.60;;
66139;SDS011;52945;51.908;8.364;2023-05-10T14:45:05;15.93;;;7.00;;
66139;SDS011;52945;51.908;8.364;2023-05-10T14:48:06;18.48;;;7.68;;
66139;SDS011;52945;51.908;8.364;2023-05-10T14:51:11;14.27;;;6.15;;
66139;SDS011;52945;51.908;8.364;2023-05-10T14:57:12;15.25;;;6.75;;
66139;SDS011;52945;51.908;8.364;2023-05-10T15:03:15;15.45;;;6.22;;
66139;SDS011;52945;51.908;8.364;2023-05-10T15:09:17;15.15;;;6.93;;
66139;SDS011;52945;51.908;8.364;2023-05-10T15:15:18;11.88;;;6.22;;
66139;SDS011;52945;51.908;8.364;2023-05-10T15:18:19;14.40;;;6.03;;
66139;SDS011;52945;51.908;8.364;2023-05-10T15:24:20;16.77;;;6.90;;
66139;SDS011;52945;51.908;8.364;2023-05-10T15:27:21;13.15;;;5.97;;
66139;SDS011;52945;51.908;8.364;2023-05-10T15:33:22;13.60;;;5.50;;
66139;SDS011;52945;51.908;8.364;2023-05-10T15:39:23;11.50;;;5.22;;
66139;SDS011;52945;51.908;8.364;2023-05-10T15:45:24;9.38;;;4.25;;
66139;SDS011;52945;51.908;8.364;2023-05-10T15:51:25;10.38;;;4.50;;
66139;SDS011;52945;51.908;8.364;2023-05-10T15:57:27;11.70;;;5.47;;
66139;SDS011;52945;51.908;8.364;2023-05-10T16:00:27;12.23;;;5.50;;
66139;SDS011;52945;51.908;8.364;2023-05-10T16:06:29;14.07;;;5.00;;
66139;SDS011;52945;51.908;8.364;2023-05-10T16:09:30;11.75;;;6.00;;
66139;SDS011;52945;51.908;8.364;2023-05-10T16:12:30;13.35;;;5.47;;
66139;SDS011;52945;51.908;8.364;2023-05-10T16:18:33;14.20;;;5.50;;
66139;SDS011;52945;51.908;8.364;2023-05-10T16:21:34;13.70;;;5.60;;
66139;SDS011;52945;51.908;8.364;2023-05-10T16:24:34;12.18;;;4.72;;
66139;SDS011;52945;51.908;8.364;2023-05-10T16:30:36;12.85;;;4.85;;
66139;SDS011;52945;51.908;8.364;2023-05-10T16:33:36;14.18;;;6.32;;
66139;SDS011;52945;51.908;8.364;2023-05-10T16:36:37;17.63;;;7.47;;
66139;SDS011;52945;51.908;8.364;2023-05-10T16:42:38;18.55;;;7.72;;
66139;SDS011;52945;51.908;8.364;2023-05-10T16:48:41;16.33;;;6.38;;
66139;SDS011;52945;51.908;8.364;2023-05-10T16:51:41;17.15;;;6.68;;
66139;SDS011;52945;51.908;8.364;2023-05-10T16:54:42;14.73;;;6.13;;
66139;SDS011;52945;51.908;8.364;2023-05-10T16:57:43;15.18;;;6.25;;
66139;SDS011;52945;51.908;8.364;2023-05-10T17:00:43;14.25;;;6.00;;
66139;SDS011;52945;51.908;8.364;2023-05-10T17:06:44;11.52;;;5.20;;
66139;SDS011;52945;51.908;8.364;2023-05-10T17:09:45;14.90;;;5.72;;
66139;SDS011;52945;51.908;8.364;2023-05-10T17:12:46;13.85;;;5.15;;
66139;SDS011;52945;51.908;8.364;2023-05-10T17:15:46;13.05;;;5.70;;
66139;SDS011;52945;51.908;8.364;2023-05-10T17:21:48;12.63;;;5.20;;
66139;SDS011;52945;51.908;8.364;2023-05-10T17:24:48;12.10;;;5.03;;
66139;SDS011;52945;51.908;8.364;2023-05-10T17:30:56;12.75;;;5.47;;
66139;SDS011;52945;51.908;8.364;2023-05-10T17:33:57;15.43;;;5.93;;
66139;SDS011;52945;51.908;8.364;2023-05-10T17:39:59;13.00;;;5.60;;
66139;SDS011;52945;51.908;8.364;2023-05-10T17:43:00;11.55;;;5.32;;
66139;SDS011;52945;51.908;8.364;2023-05-10T17:46:00;12.73;;;6.18;;
66139;SDS011;52945;51.908;8.364;2023-05-10T17:49:01;12.65;;;5.80;;
66139;SDS011;52945;51.908;8.364;2023-05-10T17:52:02;11.02;;;5.43;;
66139;SDS011;52945;51.908;8.364;2023-05-10T17:55:02;15.40;;;5.53;;
66139;SDS011;52945;51.908;8.364;2023-05-10T17:58:03;15.68;;;5.22;;
66139;SDS011;52945;51.908;8.364;2023-05-10T18:01:04;9.75;;;4.47;;
66139;SDS011;52945;51.908;8.364;2023-05-10T18:04:04;11.57;;;5.82;;
66139;SDS011;52945;51.908;8.364;2023-05-10T18:07:05;12.10;;;5.70;;
66139;SDS011;52945;51.908;8.364;2023-05-10T18:10:06;12.38;;;4.95;;
66139;SDS011;52945;51.908;8.364;2023-05-10T18:13:07;15.25;;;5.95;;
66139;SDS011;52945;51.908;8.364;2023-05-10T18:16:08;12.40;;;5.43;;
66139;SDS011;52945;51.908;8.364;2023-05-10T18:19:11;12.05;;;5.80;;
66139;SDS011;52945;51.908;8.364;2023-05-10T18:22:12;11.80;;;5.05;;
66139;SDS011;52945;51.908;8.364;2023-05-10T18:25:12;16.50;;;6.30;;
66139;SDS011;52945;51.908;8.364;2023-05-10T18:28:13;13.38;;;6.43;;
66139;SDS011;52945;51.908;8.364;2023-05-10T18:31:13;14.30;;;5.97;;
66139;SDS011;52945;51.908;8.364;2023-05-10T18:34:15;14.57;;;6.03;;
66139;SDS011;52945;51.908;8.364;2023-05-10T18:37:15;13.10;;;5.40;;
66139;SDS011;52945;51.908;8.364;2023-05-10T18:40:16;13.07;;;5.55;;
66139;SDS011;52945;51.908;8.364;2023-05-10T18:43:18;15.13;;;5.90;;
66139;SDS011;52945;51.908;8.364;2023-05-10T18:46:19;12.48;;;5.75;;
66139;SDS011;52945;51.908;8.364;2023-05-10T18:49:19;11.35;;;5.85;;
66139;SDS011;52945;51.908;8.364;2023-05-10T18:52:20;18.52;;;6.95;;
66139;SDS011;52945;51.908;8.364;2023-05-10T18:55:21;16.58;;;6.80;;
66139;SDS011;52945;51.908;8.364;2023-05-10T18:58:27;15.23;;;6.45;;
66139;SDS011;52945;51.908;8.364;2023-05-10T19:01:28;16.13;;;6.15;;
66139;SDS011;52945;51.908;8.364;2023-05-10T19:04:29;16.15;;;6.70;;
66139;SDS011;52945;51.908;8.364;2023-05-10T19:07:29;17.50;;;7.22;;
66139;SDS011;52945;51.908;8.364;2023-05-10T19:10:30;16.17;;;7.68;;
66139;SDS011;52945;51.908;8.364;2023-05-10T19:13:31;17.73;;;6.75;;
66139;SDS011;52945;51.908;8.364;2023-05-10T19:16:31;13.85;;;6.47;;
66139;SDS011;52945;51.908;8.364;2023-05-10T19:19:33;15.80;;;6.78;;
66139;SDS011;52945;51.908;8.364;2023-05-10T19:22:33;12.60;;;6.13;;
66139;SDS011;52945;51.908;8.364;2023-05-10T19:25:34;12.93;;;6.03;;
66139;SDS011;52945;51.908;8.364;2023-05-10T19:28:35;15.10;;;6.13;;
66139;SDS011;52945;51.908;8.364;2023-05-10T19:34:36;13.68;;;5.95;;
66139;SDS011;52945;51.908;8.364;2023-05-10T19:37:37;13.43;;;5.78;;
66139;SDS011;52945;51.908;8.364;2023-05-10T19:40:37;11.70;;;5.72;;
66139;SDS011;52945;51.908;8.364;2023-05-10T19:43:38;12.13;;;6.07;;
66139;SDS011;52945;51.908;8.364;2023-05-10T19:46:40;12.90;;;6.18;;
66139;SDS011;52945;51.908;8.364;2023-05-10T19:49:41;11.90;;;5.47;;
66139;SDS011;52945;51.908;8.364;2023-05-10T19:52:41;13.30;;;5.43;;
66139;SDS011;52945;51.908;8.364;2023-05-10T19:55:42;12.82;;;5.60;;
66139;SDS011;52945;51.908;8.364;2023-05-10T19:58:42;13.40;;;5.35;;
66139;SDS011;52945;51.908;8.364;2023-05-10T20:01:43;13.38;;;5.63;;
66139;SDS011;52945;51.908;8.364;2023-05-10T20:04:44;12.68;;;6.28;;
66139;SDS011;52945;51.908;8.364;2023-05-10T20:07:44;11.98;;;6.10;;
66139;SDS011;52945;51.908;8.364;2023-05-10T20:10:45;12.55;;;5.93;;
66139;SDS011;52945;51.908;8.364;2023-05-10T20:13:45;13.38;;;5.75;;
66139;SDS011;52945;51.908;8.364;2023-05-10T20:16:46;15.13;;;5.80;;
66139;SDS011;52945;51.908;8.364;2023-05-10T20:19:47;15.43;;;6.93;;
66139;SDS011;52945;51.908;8.364;2023-05-10T20:22:48;14.55;;;5.60;;
66139;SDS011;52945;51.908;8.364;2023-05-10T20:28:49;13.30;;;5.72;;
66139;SDS011;52945;51.908;8.364;2023-05-10T20:31:50;13.32;;;6.25;;
66139;SDS011;52945;51.908;8.364;2023-05-10T20:34:50;16.35;;;7.53;;
66139;SDS011;52945;51.908;8.364;2023-05-10T20:37:51;16.08;;;6.47;;
66139;SDS011;52945;51.908;8.364;2023-05-10T20:40:51;14.77;;;6.88;;
66139;SDS011;52945;51.908;8.364;2023-05-10T20:43:52;15.23;;;7.53;;
66139;SDS011;52945;51.908;8.364;2023-05-10T20:46:52;16.90;;;6.80;;
66139;SDS011;52945;51.908;8.364;2023-05-10T20:49:53;15.75;;;6.95;;
66139;SDS011;52945;51.908;8.364;2023-05-10T20:52:54;14.73;;;6.75;;
66139;SDS011;52945;51.908;8.364;2023-05-10T20:55:54;15.18;;;6.32;;
66139;SDS011;52945;51.908;8.364;2023-05-10T20:58:55;18.05;;;7.50;;
66139;SDS011;52945;51.908;8.364;2023-05-10T21:01:55;15.15;;;6.60;;
66139;SDS011;52945;51.908;8.364;2023-05-10T21:04:56;18.13;;;7.43;;
66139;SDS011;52945;51.908;8.364;2023-05-10T21:07:58;19.67;;;7.93;;
66139;SDS011;52945;51.908;8.364;2023-05-10T21:11:00;18.40;;;7.90;;
66139;SDS011;52945;51.908;8.364;2023-05-10T21:14:04;20.63;;;8.00;;
66139;SDS011;52945;51.908;8.364;2023-05-10T21:17:04;18.80;;;8.32;;
66139;SDS011;52945;51.908;8.364;2023-05-10T21:20:05;20.52;;;9.32;;
66139;SDS011;52945;51.908;8.364;2023-05-10T21:23:06;23.00;;;9.18;;
66139;SDS011;52945;51.908;8.364;2023-05-10T21:26:07;18.90;;;8.73;;